createdAt,value
2018-05-06T00:01:29.024Z,12.80
2018-05-06T00:03:57.248Z,12.27
2018-05-06T00:06:25.473Z,12.33
2018-05-06T00:08:54.448Z,12.13
2018-05-06T00:11:23.691Z,11.80
2018-05-06T00:13:51.900Z,12.63
2018-05-06T00:16:21.716Z,12.93
2018-05-06T00:18:49.994Z,13.73
2018-05-06T00:21:18.262Z,13.40
2018-05-06T00:23:46.524Z,12.73
2018-05-06T00:26:14.800Z,12.00
2018-05-06T00:28:43.002Z,12.50
2018-05-06T00:31:11.243Z,11.53
2018-05-06T00:33:39.490Z,12.47
2018-05-06T00:36:07.678Z,12.47
2018-05-06T00:38:36.637Z,13.53
2018-05-06T00:41:04.859Z,12.30
2018-05-06T00:43:33.077Z,14.17
2018-05-06T00:46:01.287Z,12.53
2018-05-06T00:48:30.300Z,13.40
2018-05-06T00:50:59.433Z,11.90
2018-05-06T00:53:27.777Z,12.50
2018-05-06T00:55:56.029Z,12.23
2018-05-06T00:58:24.259Z,12.40
2018-05-06T01:00:52.448Z,11.93
2018-05-06T01:03:21.441Z,12.43
2018-05-06T01:05:49.671Z,12.37
2018-05-06T01:08:17.917Z,11.73
2018-05-06T01:10:46.115Z,11.70
2018-05-06T01:13:14.302Z,13.73
2018-05-06T01:15:42.540Z,10.80
2018-05-06T01:18:10.785Z,11.97
2018-05-06T01:20:39.135Z,12.17
2018-05-06T01:23:07.806Z,12.37
2018-05-06T01:25:36.138Z,12.03
2018-05-06T01:28:04.382Z,11.93
2018-05-06T01:30:32.615Z,11.10
2018-05-06T01:33:01.640Z,11.23
2018-05-06T01:35:29.977Z,11.73
2018-05-06T01:37:58.521Z,10.80
2018-05-06T01:40:27.628Z,11.37
2018-05-06T01:42:57.816Z,11.40
2018-05-06T01:45:26.979Z,11.30
2018-05-06T01:47:56.108Z,11.90
2018-05-06T01:50:24.358Z,11.87
2018-05-06T01:52:52.562Z,11.03
2018-05-06T01:55:21.558Z,11.70
2018-05-06T01:57:50.565Z,12.17
2018-05-06T02:00:19.554Z,11.93
2018-05-06T02:02:47.756Z,11.57
2018-05-06T02:05:16.731Z,12.20
2018-05-06T02:07:45.876Z,12.23
2018-05-06T02:10:14.118Z,12.63
2018-05-06T02:12:43.150Z,12.20
2018-05-06T02:15:11.387Z,11.93
2018-05-06T02:17:40.422Z,12.70
2018-05-06T02:20:08.830Z,12.70
2018-05-06T02:22:37.884Z,13.03
2018-05-06T02:25:06.186Z,14.10
2018-05-06T02:27:34.436Z,13.13
2018-05-06T02:30:02.688Z,13.30
2018-05-06T02:32:31.770Z,13.00
2018-05-06T02:35:00.021Z,13.67
2018-05-06T02:37:28.258Z,12.63
2018-05-06T02:39:56.534Z,12.53
2018-05-06T02:42:24.781Z,11.97
2018-05-06T02:44:53.013Z,12.43
2018-05-06T02:47:21.402Z,12.30
2018-05-06T02:49:49.589Z,11.87
2018-05-06T02:52:17.824Z,12.20
2018-05-06T02:54:46.101Z,11.57
2018-05-06T02:57:14.347Z,11.90
2018-05-06T02:59:43.397Z,11.90
2018-05-06T03:02:11.595Z,12.90
2018-05-06T03:04:39.859Z,13.33
2018-05-06T03:07:08.076Z,12.97
2018-05-06T03:09:36.294Z,12.00
2018-05-06T03:12:04.666Z,12.57
2018-05-06T03:14:33.656Z,13.07
2018-05-06T03:17:02.679Z,13.47
2018-05-06T03:19:30.973Z,12.83
2018-05-06T03:21:59.161Z,12.43
2018-05-06T03:24:27.381Z,12.37
2018-05-06T03:26:56.356Z,12.57
2018-05-06T03:29:24.695Z,12.53
2018-05-06T03:31:53.085Z,13.47
2018-05-06T03:34:21.307Z,12.27
2018-05-06T03:36:50.321Z,13.40
2018-05-06T03:39:18.524Z,13.23
2018-05-06T03:41:46.719Z,13.53
2018-05-06T03:44:14.924Z,13.47
2018-05-06T03:46:43.171Z,14.03
2018-05-06T03:49:11.395Z,14.13
2018-05-06T03:51:40.378Z,13.57
2018-05-06T03:54:09.325Z,14.37
2018-05-06T03:59:49.321Z,11.67
2018-05-06T04:05:16.715Z,13.17
2018-05-06T04:07:45.722Z,13.60
2018-05-06T04:10:14.861Z,14.83
2018-05-06T04:12:46.151Z,14.00
2018-05-06T04:15:14.356Z,14.30
2018-05-06T04:17:42.586Z,13.60
2018-05-06T04:20:10.800Z,15.33
2018-05-06T04:22:39.236Z,14.43
2018-05-06T04:25:07.476Z,15.00
2018-05-06T04:27:35.702Z,15.97
2018-05-06T04:30:04.088Z,15.57
2018-05-06T04:32:32.361Z,14.87
2018-05-06T04:35:00.568Z,14.33
2018-05-06T04:37:28.810Z,12.13
2018-05-06T04:39:57.068Z,11.33
2018-05-06T04:42:25.314Z,13.03
2018-05-06T04:44:54.436Z,13.20
2018-05-06T04:47:22.639Z,14.30
2018-05-06T04:49:50.898Z,13.97
2018-05-06T04:52:19.103Z,13.67
2018-05-06T04:54:47.433Z,13.10
2018-05-06T04:57:15.656Z,13.63
2018-05-06T04:59:43.869Z,12.40
2018-05-06T05:02:12.170Z,12.93
2018-05-06T05:04:40.467Z,13.33
2018-05-06T05:07:08.829Z,13.53
2018-05-06T05:09:37.139Z,16.43
2018-05-06T05:12:05.512Z,17.03
2018-05-06T05:14:33.754Z,14.83
2018-05-06T05:17:02.041Z,14.10
2018-05-06T05:19:30.261Z,13.77
2018-05-06T05:21:58.469Z,12.73
2018-05-06T05:24:28.301Z,12.97
2018-05-06T05:26:56.563Z,11.90
2018-05-06T05:29:25.555Z,12.17
2018-05-06T05:31:53.763Z,12.00
2018-05-06T05:34:22.049Z,12.03
2018-05-06T05:36:50.206Z,11.63
2018-05-06T05:39:18.440Z,12.10
2018-05-06T05:41:47.423Z,11.23
2018-05-06T05:44:16.595Z,11.87
2018-05-06T05:46:44.875Z,10.60
2018-05-06T05:49:13.119Z,11.63
2018-05-06T05:51:41.418Z,11.57
2018-05-06T05:54:09.913Z,12.43
2018-05-06T05:56:38.169Z,12.27
2018-05-06T05:59:06.998Z,12.90
2018-05-06T06:01:35.400Z,11.73
2018-05-06T06:04:03.565Z,11.57
2018-05-06T06:06:32.725Z,11.57
2018-05-06T06:09:01.026Z,11.90
2018-05-06T06:11:29.903Z,11.10
2018-05-06T06:14:00.445Z,10.23
2018-05-06T06:16:28.673Z,10.60
2018-05-06T06:18:56.941Z,10.70
2018-05-06T06:21:26.088Z,10.20
2018-05-06T06:23:57.994Z,10.43
2018-05-06T06:26:26.431Z,9.63
2018-05-06T06:28:54.662Z,10.20
2018-05-06T06:31:23.762Z,10.03
2018-05-06T06:33:54.050Z,9.50
2018-05-06T06:36:22.336Z,10.20
2018-05-06T06:38:51.380Z,10.50
2018-05-06T06:41:19.596Z,10.27
2018-05-06T06:43:48.168Z,13.27
2018-05-06T06:46:16.390Z,11.40
2018-05-06T06:48:45.417Z,10.63
2018-05-06T06:51:13.728Z,11.40
2018-05-06T06:53:42.328Z,12.53
2018-05-06T06:56:10.698Z,14.10
2018-05-06T06:58:38.994Z,13.13
2018-05-06T07:01:08.018Z,13.77
2018-05-06T07:03:36.332Z,15.00
2018-05-06T07:06:04.544Z,16.60
2018-05-06T07:08:33.069Z,17.00
2018-05-06T07:11:01.593Z,16.87
2018-05-06T07:13:30.591Z,15.27
2018-05-06T07:15:58.895Z,11.93
2018-05-06T07:18:27.873Z,20.00
2018-05-06T07:20:56.250Z,15.60
2018-05-06T07:23:25.989Z,15.53
2018-05-06T07:25:54.187Z,14.13
2018-05-06T07:28:22.476Z,11.73
2018-05-06T07:30:50.784Z,10.30
2018-05-06T07:33:19.050Z,9.83
2018-05-06T07:35:48.946Z,9.83
2018-05-06T07:38:17.897Z,10.43
2018-05-06T07:40:46.282Z,9.03
2018-05-06T07:43:14.572Z,9.70
2018-05-06T07:45:43.603Z,9.57
2018-05-06T07:48:12.433Z,9.27
2018-05-06T07:50:40.746Z,8.47
2018-05-06T07:53:08.980Z,8.60
2018-05-06T07:55:37.240Z,8.13
2018-05-06T07:58:05.517Z,8.23
2018-05-06T08:00:33.712Z,8.80
2018-05-06T08:03:02.082Z,8.73
2018-05-06T08:05:30.304Z,8.33
2018-05-06T08:07:59.261Z,7.40
2018-05-06T08:10:27.642Z,7.97
2018-05-06T08:12:55.858Z,8.53
2018-05-06T08:15:24.851Z,8.27
2018-05-06T08:17:53.970Z,8.87
2018-05-06T08:20:30.024Z,8.03
2018-05-06T08:22:59.150Z,8.37
2018-05-06T08:25:27.549Z,8.30
2018-05-06T08:27:56.692Z,8.20
2018-05-06T08:30:25.728Z,7.83
2018-05-06T08:32:54.752Z,7.93
2018-05-06T08:35:24.048Z,7.83
2018-05-06T08:37:52.407Z,7.07
2018-05-06T08:40:20.642Z,7.57
2018-05-06T08:42:48.892Z,7.57
2018-05-06T08:45:18.066Z,7.20
2018-05-06T08:47:46.299Z,6.97
2018-05-06T08:50:14.605Z,7.17
2018-05-06T08:52:42.830Z,7.60
2018-05-06T08:55:12.534Z,7.47
2018-05-06T08:57:40.720Z,7.00
2018-05-06T09:00:09.739Z,6.77
2018-05-06T09:02:38.775Z,7.40
2018-05-06T09:05:07.861Z,6.87
2018-05-06T09:07:36.134Z,7.57
2018-05-06T09:10:04.431Z,7.67
2018-05-06T09:12:32.667Z,8.00
2018-05-06T09:15:01.082Z,8.10
2018-05-06T09:17:29.368Z,8.27
2018-05-06T09:19:57.714Z,7.17
2018-05-06T09:22:27.399Z,7.43
2018-05-06T09:24:59.418Z,8.37
2018-05-06T09:27:27.649Z,8.37
2018-05-06T09:29:57.713Z,6.90
2018-05-06T09:32:26.038Z,7.30
2018-05-06T09:34:54.740Z,7.70
2018-05-06T09:37:23.800Z,7.30
2018-05-06T09:39:52.226Z,7.40
2018-05-06T09:42:20.532Z,7.80
2018-05-06T09:44:49.039Z,7.83
2018-05-06T09:47:17.417Z,7.37
2018-05-06T09:49:45.659Z,8.07
2018-05-06T09:52:13.909Z,7.37
2018-05-06T09:54:42.252Z,7.50
2018-05-06T09:57:10.481Z,7.10
2018-05-06T09:59:38.752Z,7.07
2018-05-06T10:02:06.973Z,7.77
2018-05-06T10:04:35.204Z,7.93
2018-05-06T10:07:03.522Z,8.20
2018-05-06T10:09:31.756Z,9.03
2018-05-06T10:12:03.217Z,8.17
2018-05-06T10:14:31.465Z,8.47
2018-05-06T10:16:59.715Z,8.40
2018-05-06T10:19:35.362Z,8.13
2018-05-06T10:22:03.717Z,9.67
2018-05-06T10:24:32.042Z,9.50
2018-05-06T10:27:04.192Z,10.10
2018-05-06T10:29:32.483Z,10.13
2018-05-06T10:32:00.826Z,10.93
2018-05-06T10:34:29.833Z,9.63
2018-05-06T10:36:58.043Z,9.90
2018-05-06T10:39:26.647Z,10.30
2018-05-06T10:41:54.873Z,10.53
2018-05-06T10:44:23.285Z,11.87
2018-05-06T10:46:52.360Z,13.17
2018-05-06T10:49:21.873Z,13.10
2018-05-06T10:51:50.215Z,11.97
2018-05-06T10:54:18.630Z,12.37
2018-05-06T10:56:47.229Z,10.23
2018-05-06T10:59:15.430Z,10.40
2018-05-06T11:01:43.699Z,10.63
2018-05-06T11:04:13.191Z,12.63
2018-05-06T11:06:41.391Z,15.30
2018-05-06T11:09:10.537Z,15.13
2018-05-06T11:11:38.827Z,16.13
2018-05-06T11:14:07.027Z,16.60
2018-05-06T11:16:35.235Z,15.63
2018-05-06T11:19:03.482Z,15.63
2018-05-06T11:21:31.780Z,13.63
2018-05-06T11:24:00.946Z,13.93
2018-05-06T11:26:29.185Z,18.33
2018-05-06T11:28:57.376Z,14.13
2018-05-06T11:31:27.501Z,15.63
2018-05-06T11:33:55.758Z,14.40
2018-05-06T11:36:24.654Z,14.63
2018-05-06T11:38:52.873Z,14.17
2018-05-06T11:41:22.021Z,14.47
2018-05-06T11:43:51.048Z,15.50
2018-05-06T11:46:19.369Z,16.67
2018-05-06T11:48:48.505Z,16.30
2018-05-06T11:51:16.687Z,16.53
2018-05-06T11:53:45.681Z,17.83
2018-05-06T11:56:13.971Z,18.27
2018-05-06T11:58:43.749Z,16.87
2018-05-06T12:01:12.011Z,14.77
2018-05-06T12:03:40.990Z,14.90
2018-05-06T12:06:09.214Z,14.90
2018-05-06T12:08:37.432Z,16.43
2018-05-06T12:11:05.681Z,17.43
2018-05-06T12:13:33.889Z,15.80
2018-05-06T12:16:02.128Z,15.40
2018-05-06T12:18:30.359Z,15.10
2018-05-06T12:20:58.561Z,14.23
2018-05-06T12:23:26.832Z,16.23
2018-05-06T12:25:55.805Z,14.77
2018-05-06T12:28:24.008Z,14.00
2018-05-06T12:30:53.035Z,14.67
2018-05-06T12:33:21.246Z,13.30
2018-05-06T12:35:49.518Z,13.40
2018-05-06T12:38:17.765Z,12.33
2018-05-06T12:40:46.748Z,10.53
2018-05-06T12:43:15.633Z,10.30
2018-05-06T12:45:43.980Z,10.17
2018-05-06T12:48:12.268Z,11.27
2018-05-06T12:50:41.263Z,11.20
2018-05-06T12:53:09.467Z,10.10
2018-05-06T12:55:38.480Z,9.77
2018-05-06T12:58:06.711Z,9.57
2018-05-06T13:00:35.723Z,9.70
2018-05-06T13:03:04.867Z,8.23
2018-05-06T13:05:33.240Z,7.30
2018-05-06T13:08:01.493Z,6.60
2018-05-06T13:10:29.726Z,6.47
2018-05-06T13:12:57.954Z,7.20
2018-05-06T13:15:26.173Z,6.78
2018-05-06T13:17:54.405Z,7.22
2018-05-06T13:20:22.669Z,6.28
2018-05-06T13:22:51.681Z,6.97
2018-05-06T13:25:20.360Z,6.62
2018-05-06T13:27:48.578Z,6.95
2018-05-06T13:30:17.406Z,6.60
2018-05-06T13:32:46.381Z,6.55
2018-05-06T13:35:14.971Z,5.93
2018-05-06T13:37:43.252Z,6.05
2018-05-06T13:40:13.008Z,6.07
2018-05-06T13:42:41.262Z,5.50
2018-05-06T13:45:10.226Z,5.70
2018-05-06T13:47:39.272Z,5.32
2018-05-06T13:50:07.747Z,5.70
2018-05-06T13:52:36.055Z,5.82
2018-05-06T13:55:04.264Z,5.40
2018-05-06T13:57:32.539Z,5.80
2018-05-06T14:00:00.808Z,4.72
2018-05-06T14:02:30.800Z,5.40
2018-05-06T14:04:59.089Z,5.40
2018-05-06T14:07:27.386Z,5.10
2018-05-06T14:09:56.410Z,5.00
2018-05-06T14:12:24.637Z,4.93
2018-05-06T14:14:53.714Z,5.20
2018-05-06T14:17:21.944Z,5.00
2018-05-06T14:19:50.192Z,4.87
2018-05-06T14:22:18.411Z,5.07
2018-05-06T14:24:46.595Z,4.70
2018-05-06T14:27:14.887Z,4.87
2018-05-06T14:29:43.177Z,4.60
2018-05-06T14:32:17.369Z,4.30
2018-05-06T14:34:46.519Z,4.47
2018-05-06T14:37:14.769Z,4.60
2018-05-06T14:39:43.700Z,4.18
2018-05-06T14:42:12.708Z,3.97
2018-05-06T14:44:40.943Z,4.40
2018-05-06T14:47:21.255Z,4.57
2018-05-06T14:49:50.436Z,4.70
2018-05-06T14:52:18.676Z,4.37
2018-05-06T14:54:46.968Z,4.75
2018-05-06T14:57:15.167Z,4.30
2018-05-06T14:59:43.355Z,4.00
2018-05-06T15:02:11.712Z,4.07
2018-05-06T15:04:40.124Z,3.80
2018-05-06T15:07:09.312Z,3.75
2018-05-06T15:09:37.549Z,3.90
2018-05-06T15:12:05.757Z,4.30
2018-05-06T15:14:36.286Z,3.83
2018-05-06T15:17:04.552Z,4.18
2018-05-06T15:19:33.631Z,4.00
2018-05-06T15:22:01.939Z,3.70
2018-05-06T15:24:30.224Z,3.60
2018-05-06T15:26:58.491Z,3.62
2018-05-06T15:29:26.691Z,4.03
2018-05-06T15:31:54.922Z,3.90
2018-05-06T15:34:23.133Z,3.78
2018-05-06T15:36:51.326Z,4.25
2018-05-06T15:39:19.586Z,3.83
2018-05-06T15:41:48.386Z,3.75
2018-05-06T15:44:16.978Z,3.50
2018-05-06T15:46:45.188Z,3.40
2018-05-06T15:49:13.511Z,3.42
2018-05-06T15:51:41.756Z,3.30
2018-05-06T15:54:11.339Z,9.80
2018-05-06T15:56:40.468Z,14.85
2018-05-06T15:59:08.687Z,13.85
2018-05-06T16:01:36.957Z,13.90
2018-05-06T16:04:15.896Z,11.00
2018-05-06T16:06:44.148Z,8.30
2018-05-06T16:09:12.422Z,9.32
2018-05-06T16:11:40.654Z,5.32
2018-05-06T16:14:08.862Z,9.43
2018-05-06T16:16:37.832Z,9.13
2018-05-06T16:19:06.854Z,8.73
2018-05-06T16:21:35.126Z,8.90
2018-05-06T16:24:04.077Z,9.30
2018-05-06T16:26:33.260Z,9.57
2018-05-06T16:29:01.515Z,8.73
2018-05-06T16:31:29.809Z,8.73
2018-05-06T16:33:58.255Z,7.80
2018-05-06T16:36:26.532Z,8.00
2018-05-06T16:38:54.797Z,8.30
2018-05-06T16:41:24.075Z,8.67
2018-05-06T16:43:52.342Z,8.27
2018-05-06T16:46:20.716Z,8.33
2018-05-06T16:48:48.954Z,7.77
2018-05-06T16:51:17.180Z,7.77
2018-05-06T16:53:45.378Z,6.93
2018-05-06T16:56:13.616Z,6.97
2018-05-06T16:58:42.210Z,7.73
2018-05-06T17:01:12.023Z,6.47
2018-05-06T17:03:40.351Z,8.00
2018-05-06T17:06:09.521Z,7.70
2018-05-06T17:08:37.817Z,6.80
2018-05-06T17:11:06.808Z,6.53
2018-05-06T17:13:35.020Z,6.37
2018-05-06T17:16:03.248Z,6.50
2018-05-06T17:18:31.509Z,5.77
2018-05-06T17:20:59.883Z,7.10
2018-05-06T17:23:28.282Z,6.50
2018-05-06T17:25:57.314Z,5.57
2018-05-06T17:28:26.389Z,5.37
2018-05-06T17:30:54.734Z,5.30
2018-05-06T17:33:22.956Z,5.57
2018-05-06T17:35:52.047Z,5.27
2018-05-06T17:38:20.314Z,5.50
2018-05-06T17:40:48.504Z,5.00
2018-05-06T17:43:17.524Z,5.20
2018-05-06T17:45:46.558Z,4.87
2018-05-06T17:48:14.753Z,4.33
2018-05-06T17:50:43.703Z,5.13
2018-05-06T17:53:11.918Z,5.00
2018-05-06T17:55:40.212Z,4.97
2018-05-06T17:58:09.286Z,5.50
2018-05-06T18:00:37.561Z,4.80
2018-05-06T18:03:05.807Z,5.03
2018-05-06T18:05:36.678Z,4.20
2018-05-06T18:08:04.945Z,6.87
2018-05-06T18:10:33.194Z,8.57
2018-05-06T18:13:02.187Z,9.40
2018-05-06T18:15:30.407Z,9.73
2018-05-06T18:17:59.429Z,8.50
2018-05-06T18:20:28.431Z,7.97
2018-05-06T18:22:57.401Z,8.80
2018-05-06T18:25:25.617Z,8.00
2018-05-06T18:27:53.916Z,6.97
2018-05-06T18:30:25.928Z,7.47
2018-05-06T18:35:41.613Z,7.10
2018-05-06T18:38:15.360Z,6.73
2018-05-06T18:40:49.075Z,6.37
2018-05-06T18:43:22.595Z,6.27
2018-05-06T18:45:51.533Z,6.33
2018-05-06T18:48:19.836Z,6.33
2018-05-06T18:50:48.033Z,5.80
2018-05-06T18:53:16.232Z,5.80
2018-05-06T18:55:44.474Z,6.87
2018-05-06T18:58:12.812Z,7.10
2018-05-06T19:00:41.116Z,6.63
2018-05-06T19:03:09.403Z,6.43
2018-05-06T19:05:38.471Z,6.67
2018-05-06T19:08:06.816Z,7.17
2018-05-06T19:10:36.152Z,6.10
2018-05-06T19:13:04.333Z,5.80
2018-05-06T19:15:32.740Z,5.63
2018-05-06T19:18:04.015Z,5.10
2018-05-06T19:20:33.059Z,5.37
2018-05-06T19:23:01.293Z,6.67
2018-05-06T19:25:30.308Z,6.33
2018-05-06T19:27:59.356Z,6.03
2018-05-06T19:30:27.614Z,6.93
2018-05-06T19:32:55.867Z,7.53
2018-05-06T19:35:24.687Z,7.13
2018-05-06T19:37:52.928Z,7.73
2018-05-06T19:40:21.174Z,8.77
2018-05-06T19:42:50.162Z,7.63
2018-05-06T19:45:18.497Z,8.00
2018-05-06T19:47:47.214Z,8.20
2018-05-06T19:50:16.256Z,7.63
2018-05-06T19:52:45.582Z,7.83
2018-05-06T19:55:13.929Z,8.07
2018-05-06T19:57:42.896Z,6.70
2018-05-06T20:00:13.084Z,6.90
2018-05-06T20:02:41.362Z,6.30
2018-05-06T20:05:09.610Z,6.80
2018-05-06T20:07:37.840Z,6.47
2018-05-06T20:10:06.912Z,6.23
2018-05-06T20:12:35.097Z,6.37
2018-05-06T20:15:03.339Z,5.90
2018-05-06T20:17:31.588Z,5.80
2018-05-06T20:20:00.620Z,5.10
2018-05-06T20:22:28.965Z,4.90
2018-05-06T20:24:57.296Z,4.10
2018-05-06T20:27:26.561Z,4.10
2018-05-06T20:29:54.797Z,4.00
2018-05-06T20:32:23.056Z,3.90
2018-05-06T20:34:51.266Z,4.03
2018-05-06T20:37:20.973Z,4.50
2018-05-06T20:39:50.013Z,5.17
2018-05-06T20:42:18.298Z,5.10
2018-05-06T20:44:46.626Z,5.10
2018-05-06T20:47:14.844Z,5.63
2018-05-06T20:49:43.675Z,5.90
2018-05-06T20:52:15.318Z,5.33
2018-05-06T20:54:44.972Z,5.60
2018-05-06T20:57:13.387Z,5.97
2018-05-06T20:59:41.646Z,5.97
2018-05-06T21:02:11.347Z,6.17
2018-05-06T21:04:39.568Z,5.87
2018-05-06T21:07:07.767Z,6.20
2018-05-06T21:09:36.017Z,6.20
2018-05-06T21:12:04.230Z,6.50
2018-05-06T21:14:33.960Z,6.30
2018-05-06T21:17:03.640Z,6.37
2018-05-06T21:19:32.896Z,7.00
2018-05-06T21:22:01.910Z,6.77
2018-05-06T21:24:30.111Z,6.93
2018-05-06T21:26:58.402Z,6.83
2018-05-06T21:29:26.588Z,6.57
2018-05-06T21:31:54.969Z,7.50
2018-05-06T21:34:28.936Z,7.60
2018-05-06T21:36:57.202Z,7.83
2018-05-06T21:39:26.219Z,8.70
2018-05-06T21:41:54.507Z,12.77
2018-05-06T21:44:22.741Z,22.27
2018-05-06T21:46:51.066Z,17.53
2018-05-06T21:49:20.165Z,16.20
2018-05-06T21:51:48.547Z,17.73
2018-05-06T21:54:16.747Z,14.90
2018-05-06T21:56:45.129Z,11.50
2018-05-06T21:59:13.514Z,10.97
2018-05-06T22:01:43.485Z,10.10
2018-05-06T22:04:12.013Z,10.80
2018-05-06T22:06:41.280Z,10.80
2018-05-06T22:09:09.576Z,9.80
2018-05-06T22:11:37.790Z,9.27
2018-05-06T22:14:06.813Z,9.03
2018-05-06T22:16:35.117Z,10.77
2018-05-06T22:19:03.407Z,10.03
2018-05-06T22:21:31.671Z,9.97
2018-05-06T22:24:00.200Z,11.70
2018-05-06T22:26:28.439Z,12.80
2018-05-06T22:28:57.560Z,12.60
2018-05-06T22:31:26.576Z,11.70
2018-05-06T22:33:54.844Z,12.63
2018-05-06T22:36:23.893Z,12.83
2018-05-06T22:38:53.170Z,12.50
2018-05-06T22:41:22.281Z,16.17
2018-05-06T22:43:50.682Z,15.13
2018-05-06T22:46:18.900Z,16.47
2018-05-06T22:48:47.124Z,16.37
2018-05-06T22:51:15.973Z,17.13
2018-05-06T22:53:44.180Z,13.90
2018-05-06T22:56:13.066Z,12.70
2018-05-06T22:58:42.116Z,12.23
2018-05-06T23:01:11.169Z,11.60
2018-05-06T23:03:39.476Z,11.10
2018-05-06T23:06:07.710Z,13.00
2018-05-06T23:08:36.698Z,13.33
2018-05-06T23:11:05.789Z,12.57
2018-05-06T23:13:33.979Z,11.77
2018-05-06T23:16:05.751Z,11.60
2018-05-06T23:18:33.981Z,11.80
2018-05-06T23:21:02.356Z,11.63
2018-05-06T23:23:32.178Z,10.73
2018-05-06T23:26:01.346Z,10.83
2018-05-06T23:28:29.935Z,11.30
2018-05-06T23:30:58.125Z,11.63
2018-05-06T23:33:26.396Z,10.43
2018-05-06T23:35:54.623Z,10.10
2018-05-06T23:38:23.585Z,11.00
2018-05-06T23:40:51.830Z,14.00
2018-05-06T23:43:20.164Z,13.50
2018-05-06T23:45:49.143Z,13.17
2018-05-06T23:48:17.353Z,12.83
2018-05-06T23:50:45.557Z,12.67
2018-05-06T23:53:13.763Z,12.63
2018-05-06T23:55:42.113Z,12.63
2018-05-06T23:58:10.405Z,12.83
